Averill Park, NY

1:22 PM EST on November 21, 2014 (GMT -0500)
Taborton Mountain | Change Station
CLOSE
Current Station
Personal Weather Station
Location: Averill Park, NY
Elevation: 1296 ft
Nearby Weather Stations

Elev 1296 ft 42.61 °N, 73.48 °W | Updated 42 seconds ago

Overcast
Overcast
25.3 °F
Feels Like 20 °F
N
4.0
Wind Variable Wind from ESE
Gusts 10.0 mph

Today
High -- | Low -- °F
--% Chance of Precip.
Yesterday
High -- | Low -- °F
Precip. -- in
6:53 AM 4:26 PM
Waning Crescent, 1% visible
Pressure 30.27 in
Visibility 10.0 miles
Clouds Mostly Cloudy 3800 ft
Windchill 20 °F
Dew Point 14 °F
Humidity 60%
Rainfall 0.00 in
Snow Depth Not available.
UV 1.3 out of 12
Pollen .10 out of 12
Air Quality Not available.
Flu Activity Not available.
METAR KALB 211751Z 30018G24KT 10SM BKN038 M01/M11 A3026 RMK AO2 PK WND 30026/1734 SNB32E37 SLP250 BKN V SCT VCSH E-SE P0000 60000 T10111111 11006 21061 51013

More Conditions Fewer Conditions

Pressure 30.27 in
Visibility 10.0 miles
Clouds Mostly Cloudy 3800 ft
Windchill 20 °F
Dew Point 14 °F
Humidity 60%
Rainfall 0.00 in
Snow Depth Not available.
UV 1.3 out of 12
Pollen .10 out of 12
Air Quality Not available.
Flu Activity Not available.
METAR KALB 211751Z 30018G24KT 10SM BKN038 M01/M11 A3026 RMK AO2 PK WND 30026/1734 SNB32E37 SLP250 BKN V SCT VCSH E-SE P0000 60000 T10111111 11006 21061 51013

More Conditions Fewer Conditions

10-Day Weather Forecast

Almanac

Astronomy

Nov. 21, 2014 Rise Set
Actual Time
Civil Twilight
Nautical Twilight
Astronomical Twilight
Moon
Length of Visible Light
Length of Day
Tomorrow will be .
, % of the Moon is Illuminated

Today's Extremes

State Highs State Lows

Community

WunderPhotos

Upload Photos

1,772,692 photos uploaded!

WunderBlogs® & News

Nearby

Air Quality

  Air Quality AQ Index Pollutant
Not available.

Snow Depth

Station Depth Elevation

Earthquake Activity

City Distance Mag. Time & Date
Minimum magnitude displayed is 2.5.

Coastal Water Temperatures

Place Temperature

Nearby Weather Stations